createdAt,value
2022-08-17T00:00:35.030Z,70.50
2022-08-17T00:03:11.667Z,70.76
2022-08-17T00:05:48.971Z,70.84
2022-08-17T00:08:18.737Z,70.99
2022-08-17T00:10:47.089Z,71.04
2022-08-17T00:13:36.547Z,71.00
2022-08-17T00:16:08.610Z,71.00
2022-08-17T00:19:00.918Z,70.58
2022-08-17T00:21:25.327Z,70.75
2022-08-17T00:23:54.514Z,70.30
2022-08-17T00:26:34.526Z,70.49
2022-08-17T00:29:19.411Z,70.28
2022-08-17T00:31:48.529Z,70.30
2022-08-17T00:34:16.131Z,70.53
2022-08-17T00:36:43.274Z,70.14
2022-08-17T00:39:10.684Z,70.62
2022-08-17T00:41:42.101Z,70.45
2022-08-17T00:44:09.890Z,70.67
2022-08-17T00:46:41.096Z,70.67
2022-08-17T00:49:09.950Z,70.59
2022-08-17T00:51:44.062Z,70.76
2022-08-17T00:54:21.879Z,70.74
2022-08-17T00:57:06.099Z,71.28
2022-08-17T00:59:41.183Z,72.17
2022-08-17T01:02:12.757Z,72.67
2022-08-17T01:04:40.285Z,73.01
2022-08-17T01:07:08.031Z,74.26
2022-08-17T01:09:35.891Z,75.48
2022-08-17T01:12:06.747Z,75.57
2022-08-17T01:14:36.998Z,75.40
2022-08-17T01:17:05.045Z,75.62
2022-08-17T01:19:37.196Z,76.33
2022-08-17T01:22:14.370Z,77.09
2022-08-17T01:24:48.633Z,77.25
2022-08-17T01:27:18.554Z,77.67
2022-08-17T01:29:53.182Z,77.49
2022-08-17T01:32:20.546Z,77.21
2022-08-17T01:34:50.578Z,76.78
2022-08-17T01:37:20.976Z,76.95
2022-08-17T01:39:52.669Z,77.98
2022-08-17T01:42:37.955Z,78.82
2022-08-17T01:45:11.422Z,78.88
2022-08-17T01:47:38.757Z,78.92
2022-08-17T01:50:15.985Z,79.02
2022-08-17T01:52:50.998Z,78.83
2022-08-17T01:55:27.121Z,78.88
2022-08-17T01:57:54.721Z,78.36
2022-08-17T02:00:22.324Z,78.70
2022-08-17T02:02:49.577Z,78.62
2022-08-17T02:05:17.261Z,78.87
2022-08-17T02:08:00.086Z,79.24
2022-08-17T02:10:34.046Z,79.80
2022-08-17T02:13:03.398Z,80.22
2022-08-17T02:15:31.112Z,80.40
2022-08-17T02:17:58.252Z,80.95
2022-08-17T02:20:41.171Z,80.85
2022-08-17T02:23:12.418Z,80.85
2022-08-17T02:25:43.485Z,80.96
2022-08-17T02:28:11.004Z,81.08
2022-08-17T02:30:59.195Z,81.25
2022-08-17T02:33:43.239Z,81.10
2022-08-17T02:36:12.914Z,80.52
2022-08-17T02:38:41.328Z,79.80
2022-08-17T02:41:09.320Z,79.90
2022-08-17T02:43:36.875Z,80.29
2022-08-17T02:46:03.983Z,81.06
2022-08-17T02:48:32.018Z,81.19
2022-08-17T02:51:00.951Z,81.19
2022-08-17T02:53:29.773Z,81.46
2022-08-17T02:56:04.099Z,82.09
2022-08-17T02:58:35.377Z,82.43
2022-08-17T03:01:08.881Z,82.41
2022-08-17T03:03:37.723Z,82.53
2022-08-17T03:06:05.927Z,82.50
2022-08-17T03:08:34.957Z,82.14
2022-08-17T03:11:02.224Z,81.54
2022-08-17T03:13:30.935Z,81.38
2022-08-17T03:15:59.037Z,82.10
2022-08-17T03:18:28.150Z,82.75
2022-08-17T03:20:59.034Z,82.74
2022-08-17T03:23:27.535Z,83.22
2022-08-17T03:25:58.018Z,83.53
2022-08-17T03:28:26.143Z,83.50
2022-08-17T03:30:53.812Z,84.04
2022-08-17T03:33:22.005Z,84.09
2022-08-17T03:35:50.153Z,84.28
2022-08-17T03:38:18.178Z,84.07
2022-08-17T03:40:56.237Z,84.54
2022-08-17T03:43:29.640Z,84.88
2022-08-17T03:46:33.829Z,84.90
2022-08-17T03:49:25.841Z,85.52
2022-08-17T03:52:17.031Z,85.53
2022-08-17T03:55:04.097Z,85.60
2022-08-17T03:57:32.614Z,85.38
2022-08-17T04:00:00.250Z,85.51
2022-08-17T04:02:31.976Z,86.08
2022-08-17T04:04:59.783Z,86.48
2022-08-17T04:07:29.345Z,86.72
2022-08-17T04:09:58.147Z,86.67
2022-08-17T04:12:31.317Z,86.50
2022-08-17T04:14:59.562Z,86.04
2022-08-17T04:17:29.186Z,85.41
2022-08-17T04:19:56.902Z,85.55
2022-08-17T04:22:33.040Z,84.81
2022-08-17T04:25:13.912Z,85.13
2022-08-17T04:27:41.433Z,85.63
2022-08-17T04:30:09.354Z,85.36
2022-08-17T04:33:08.865Z,85.39
2022-08-17T04:35:40.218Z,85.09
2022-08-17T04:38:10.063Z,84.90
2022-08-17T04:40:56.234Z,85.14
2022-08-17T04:43:25.758Z,85.57
2022-08-17T04:46:04.841Z,84.99
2022-08-17T04:48:37.395Z,83.73
2022-08-17T04:51:10.069Z,83.01
2022-08-17T04:53:39.453Z,82.05
2022-08-17T04:56:07.393Z,81.87
2022-08-17T04:58:39.323Z,81.38
2022-08-17T05:01:07.467Z,80.65
2022-08-17T05:03:35.013Z,80.50
2022-08-17T05:06:02.109Z,78.50
2022-08-17T05:08:29.705Z,77.27
2022-08-17T05:10:57.127Z,76.62
2022-08-17T05:13:27.358Z,74.70
2022-08-17T05:15:58.021Z,74.21
2022-08-17T05:18:26.398Z,73.70
2022-08-17T05:20:54.454Z,74.32
2022-08-17T05:23:24.631Z,73.98
2022-08-17T05:25:57.190Z,73.32
2022-08-17T05:28:28.047Z,71.70
2022-08-17T05:31:00.283Z,72.85
2022-08-17T05:33:31.575Z,72.13
2022-08-17T05:35:59.392Z,72.62
2022-08-17T05:38:29.561Z,70.93
2022-08-17T05:40:58.445Z,71.67
2022-08-17T05:43:31.619Z,70.16
2022-08-17T05:46:13.751Z,69.32
2022-08-17T05:48:47.324Z,68.72
2022-08-17T05:51:35.027Z,67.83
2022-08-17T05:54:23.373Z,66.99
2022-08-17T05:57:08.950Z,64.99
2022-08-17T06:00:08.375Z,62.88
2022-08-17T06:02:47.736Z,62.45
2022-08-17T06:05:41.689Z,62.79
2022-08-17T06:08:17.774Z,61.81
2022-08-17T06:11:00.314Z,61.62
2022-08-17T06:13:58.360Z,61.67
2022-08-17T06:16:34.315Z,61.36
2022-08-17T06:19:39.486Z,61.15
2022-08-17T06:22:10.834Z,60.63
2022-08-17T06:24:57.225Z,60.70
2022-08-17T06:27:54.054Z,60.26
2022-08-17T06:30:28.605Z,59.91
2022-08-17T06:33:22.276Z,59.45
2022-08-17T06:36:17.654Z,60.37
2022-08-17T06:39:18.684Z,58.98
2022-08-17T06:41:59.324Z,58.69
2022-08-17T06:44:51.603Z,58.78
2022-08-17T06:47:36.797Z,58.37
2022-08-17T06:50:15.725Z,58.52
2022-08-17T06:53:05.319Z,58.34
2022-08-17T06:55:41.148Z,57.05
2022-08-17T06:58:15.802Z,57.60
2022-08-17T07:00:47.778Z,57.09
2022-08-17T07:03:37.997Z,57.14
2022-08-17T07:06:08.534Z,56.69
2022-08-17T07:08:50.717Z,56.77
2022-08-17T07:11:36.471Z,56.12
2022-08-17T07:14:23.929Z,56.34
2022-08-17T07:16:54.270Z,55.91
2022-08-17T07:19:25.689Z,55.59
2022-08-17T07:22:00.477Z,56.24
2022-08-17T07:24:57.347Z,56.10
2022-08-17T07:27:37.423Z,55.17
2022-08-17T07:30:12.298Z,54.77
2022-08-17T07:32:47.930Z,54.99
2022-08-17T07:35:34.410Z,53.94
2022-08-17T07:38:24.800Z,54.49
2022-08-17T07:40:57.922Z,54.24
2022-08-17T07:43:29.565Z,55.20
2022-08-17T07:46:36.682Z,55.15
2022-08-17T07:49:03.874Z,54.04
2022-08-17T07:51:35.584Z,54.04
2022-08-17T07:54:25.041Z,53.35
2022-08-17T07:56:53.812Z,53.19
2022-08-17T07:59:23.666Z,53.90
2022-08-17T08:01:58.229Z,53.70
2022-08-17T08:05:00.089Z,53.00
2022-08-17T08:07:21.553Z,53.13
2022-08-17T08:10:16.935Z,53.26
2022-08-17T08:12:47.048Z,53.23
2022-08-17T08:15:15.086Z,53.63
2022-08-17T08:17:59.414Z,52.73
2022-08-17T08:20:51.821Z,52.66
2022-08-17T08:23:42.871Z,52.05
2022-08-17T08:26:40.740Z,52.49
2022-08-17T08:29:19.333Z,52.10
2022-08-17T08:32:21.115Z,52.26
2022-08-17T08:35:03.619Z,50.13
2022-08-17T08:38:13.337Z,49.59
2022-08-17T08:41:02.505Z,49.93
2022-08-17T08:44:15.066Z,50.09
2022-08-17T08:46:54.495Z,48.36
2022-08-17T08:50:03.821Z,48.07
2022-08-17T08:53:19.011Z,48.02
2022-08-17T08:55:54.969Z,47.39
2022-08-17T08:58:31.582Z,47.35
2022-08-17T09:01:28.332Z,47.44
2022-08-17T09:04:25.459Z,46.47
2022-08-17T09:07:11.392Z,45.99
2022-08-17T09:10:00.544Z,46.17
2022-08-17T09:12:27.667Z,46.02
2022-08-17T09:15:02.033Z,45.69
2022-08-17T09:17:46.391Z,45.29
2022-08-17T09:20:29.259Z,44.33
2022-08-17T09:23:04.057Z,44.31
2022-08-17T09:25:35.371Z,44.07
2022-08-17T09:28:06.684Z,44.40
2022-08-17T09:31:24.210Z,44.17
2022-08-17T09:33:51.779Z,44.11
2022-08-17T09:36:45.320Z,43.56
2022-08-17T09:39:24.888Z,43.65
2022-08-17T09:42:22.920Z,43.81
2022-08-17T09:45:08.565Z,43.82
2022-08-17T09:47:46.870Z,44.05
2022-08-17T09:51:03.388Z,43.64
2022-08-17T09:53:16.154Z,43.27
2022-08-17T09:55:47.673Z,42.18
2022-08-17T09:58:50.926Z,43.20
2022-08-17T10:01:35.635Z,42.80
2022-08-17T10:04:11.237Z,42.82
2022-08-17T10:06:58.790Z,41.43
2022-08-17T10:09:37.965Z,41.38
2022-08-17T10:12:47.174Z,41.83
2022-08-17T10:15:37.196Z,43.18
2022-08-17T10:18:42.087Z,41.45
2022-08-17T10:21:34.123Z,41.67
2022-08-17T10:24:31.670Z,41.36
2022-08-17T10:27:01.696Z,41.91
2022-08-17T10:29:49.169Z,40.60
2022-08-17T10:32:27.892Z,40.94
2022-08-17T10:35:17.760Z,39.90
2022-08-17T10:37:51.106Z,40.79
2022-08-17T10:40:22.487Z,39.35
2022-08-17T10:42:56.985Z,39.49
2022-08-17T10:46:26.826Z,40.48
2022-08-17T10:49:22.758Z,40.64
2022-08-17T10:51:56.411Z,39.65
2022-08-17T10:54:45.591Z,39.43
2022-08-17T10:57:34.057Z,39.64
2022-08-17T11:00:17.309Z,39.50
2022-08-17T11:02:50.449Z,39.68
2022-08-17T11:05:31.817Z,40.09
2022-08-17T11:08:12.060Z,39.01
2022-08-17T11:10:58.132Z,39.38
2022-08-17T11:13:31.621Z,39.27
2022-08-17T11:16:37.796Z,39.24
2022-08-17T11:19:14.151Z,39.40
2022-08-17T11:22:12.023Z,38.92
2022-08-17T11:24:45.542Z,37.97
2022-08-17T11:27:26.914Z,38.27
2022-08-17T11:30:02.667Z,38.35
2022-08-17T11:32:37.899Z,38.12
2022-08-17T11:35:20.793Z,37.80
2022-08-17T11:38:16.249Z,37.28
2022-08-17T11:41:05.332Z,37.33
2022-08-17T11:43:59.235Z,38.26
2022-08-17T11:48:08.944Z,38.03
2022-08-17T11:51:28.787Z,37.10
2022-08-17T11:54:33.712Z,37.08
2022-08-17T11:57:42.898Z,36.88
2022-08-17T12:00:41.459Z,35.89
2022-08-17T12:03:32.285Z,36.97
2022-08-17T12:06:30.419Z,36.02
2022-08-17T12:09:22.347Z,36.27
2022-08-17T12:12:12.007Z,36.51
2022-08-17T12:15:09.562Z,37.57
2022-08-17T12:17:41.586Z,35.87
2022-08-17T12:21:00.905Z,36.94
2022-08-17T12:23:41.601Z,35.35
2022-08-17T12:26:21.185Z,35.62
2022-08-17T12:28:53.838Z,36.12
2022-08-17T12:31:26.036Z,36.12
2022-08-17T12:33:53.448Z,36.78
2022-08-17T12:36:26.724Z,35.53
2022-08-17T12:39:14.878Z,35.32
2022-08-17T12:41:52.046Z,35.62
2022-08-17T12:44:50.824Z,35.83
2022-08-17T12:47:22.413Z,34.90
2022-08-17T12:50:00.293Z,33.87
2022-08-17T12:52:32.994Z,34.85
2022-08-17T12:55:11.294Z,34.31
2022-08-17T12:57:38.661Z,34.30
2022-08-17T13:00:21.075Z,34.25
2022-08-17T13:03:00.358Z,34.72
2022-08-17T13:05:27.794Z,34.69
2022-08-17T13:08:00.540Z,34.54
2022-08-17T13:10:35.073Z,34.76
2022-08-17T13:13:19.596Z,34.53
2022-08-17T13:16:17.219Z,34.78
2022-08-17T13:19:06.558Z,34.96
2022-08-17T13:21:45.091Z,35.21
2022-08-17T13:24:20.206Z,34.56
2022-08-17T13:26:49.805Z,34.76
2022-08-17T13:29:34.941Z,34.82
2022-08-17T13:32:13.012Z,34.65
2022-08-17T13:35:11.912Z,34.75
2022-08-17T13:38:01.484Z,35.30
2022-08-17T13:40:36.002Z,35.44
2022-08-17T13:43:04.439Z,35.30
2022-08-17T13:45:39.500Z,35.45
2022-08-17T13:48:14.686Z,35.56
2022-08-17T13:50:56.954Z,35.34
2022-08-17T13:53:33.393Z,34.95
2022-08-17T13:56:38.902Z,34.84
2022-08-17T13:59:13.802Z,34.55
2022-08-17T14:01:53.741Z,34.53
2022-08-17T14:04:32.665Z,33.76
2022-08-17T14:07:13.291Z,34.35
2022-08-17T14:10:19.991Z,34.01
2022-08-17T14:12:47.965Z,33.63
2022-08-17T14:15:17.243Z,33.61
2022-08-17T14:17:44.530Z,33.39
2022-08-17T14:20:13.409Z,32.94
2022-08-17T14:22:45.589Z,33.47
2022-08-17T14:25:15.674Z,33.46
2022-08-17T14:27:52.685Z,33.22
2022-08-17T14:30:23.823Z,33.00
2022-08-17T14:32:53.334Z,33.58
2022-08-17T14:35:23.058Z,33.29
2022-08-17T14:37:51.391Z,33.53
2022-08-17T14:40:21.532Z,33.04
2022-08-17T14:42:53.857Z,33.76
2022-08-17T14:45:30.155Z,34.13
2022-08-17T14:48:08.684Z,34.11
2022-08-17T14:50:39.135Z,34.04
2022-08-17T14:53:09.129Z,34.26
2022-08-17T14:55:40.113Z,34.35
2022-08-17T14:58:11.448Z,34.71
2022-08-17T15:00:41.286Z,34.89
2022-08-17T15:03:08.695Z,35.67
2022-08-17T15:05:37.956Z,35.48
2022-08-17T15:08:06.194Z,35.03
2022-08-17T15:10:34.770Z,35.30
2022-08-17T15:13:02.231Z,35.16
2022-08-17T15:15:31.252Z,35.02
2022-08-17T15:18:00.058Z,35.19
2022-08-17T15:20:29.703Z,34.61
2022-08-17T15:22:59.051Z,34.24
2022-08-17T15:25:29.877Z,33.90
2022-08-17T15:27:58.223Z,34.49
2022-08-17T15:30:26.869Z,34.44
2022-08-17T15:32:55.453Z,34.77
2022-08-17T15:35:28.119Z,34.96
2022-08-17T15:38:10.536Z,35.24
2022-08-17T15:40:48.488Z,35.58
2022-08-17T15:43:28.574Z,35.67
2022-08-17T15:46:18.749Z,35.87
2022-08-17T15:48:49.864Z,36.16
2022-08-17T15:51:22.618Z,36.06
2022-08-17T15:54:04.499Z,36.20
2022-08-17T15:56:47.121Z,35.94
2022-08-17T15:59:14.517Z,36.17
2022-08-17T16:03:01.359Z,36.80
2022-08-17T16:04:30.929Z,37.42
2022-08-17T16:07:00.334Z,37.58
2022-08-17T16:09:27.829Z,38.42
2022-08-17T16:11:56.269Z,38.65
2022-08-17T16:14:30.301Z,39.30
2022-08-17T16:17:04.076Z,39.74
2022-08-17T16:19:32.574Z,40.13
2022-08-17T16:22:00.857Z,40.73
2022-08-17T16:24:28.385Z,41.09
2022-08-17T16:26:55.736Z,41.25
2022-08-17T16:29:23.175Z,41.69
2022-08-17T16:31:51.538Z,42.31
2022-08-17T16:34:19.070Z,42.64
2022-08-17T16:36:55.287Z,43.06
2022-08-17T16:39:29.453Z,43.98
2022-08-17T16:41:57.802Z,43.86
2022-08-17T16:44:27.572Z,44.12
2022-08-17T16:46:54.916Z,44.63
2022-08-17T16:49:35.556Z,45.08
2022-08-17T16:52:10.406Z,45.50
2022-08-17T16:54:44.018Z,45.76
2022-08-17T16:57:18.468Z,46.37
2022-08-17T16:59:50.272Z,45.83
2022-08-17T17:02:36.568Z,46.41
2022-08-17T17:05:11.805Z,46.92
2022-08-17T17:08:00.991Z,47.65
2022-08-17T17:10:44.745Z,47.77
2022-08-17T17:13:40.643Z,47.99
2022-08-17T17:16:40.427Z,47.83
2022-08-17T17:19:34.211Z,47.03
2022-08-17T17:22:20.799Z,44.90
2022-08-17T17:25:21.405Z,44.59
2022-08-17T17:28:14.857Z,44.51
2022-08-17T17:30:48.427Z,44.19
2022-08-17T17:33:24.851Z,44.11
2022-08-17T17:36:00.283Z,44.09
2022-08-17T17:38:43.258Z,43.97
2022-08-17T17:41:26.353Z,44.14
2022-08-17T17:44:02.831Z,43.95
2022-08-17T17:46:40.375Z,44.81
2022-08-17T17:49:10.678Z,45.47
2022-08-17T17:52:10.055Z,45.77
2022-08-17T17:54:56.040Z,45.90
2022-08-17T17:57:55.989Z,46.23
2022-08-17T18:00:45.054Z,46.28
2022-08-17T18:03:54.026Z,46.44
2022-08-17T18:06:33.419Z,46.59
2022-08-17T18:09:33.792Z,47.02
2022-08-17T18:12:19.873Z,46.77
2022-08-17T18:15:21.545Z,47.25
2022-08-17T18:18:17.204Z,47.64
2022-08-17T18:20:55.927Z,47.86
2022-08-17T18:23:27.898Z,48.25
2022-08-17T18:25:56.760Z,48.70
2022-08-17T18:28:34.987Z,49.05
2022-08-17T18:31:14.410Z,49.03
2022-08-17T18:33:44.398Z,49.61
2022-08-17T18:36:12.774Z,49.83
2022-08-17T18:38:43.136Z,50.39
2022-08-17T18:41:21.164Z,50.31
2022-08-17T18:44:29.283Z,50.87
2022-08-17T18:47:22.695Z,51.00
2022-08-17T18:49:57.600Z,51.33
2022-08-17T18:52:30.672Z,51.65
2022-08-17T18:55:15.302Z,51.47
2022-08-17T18:57:59.847Z,51.87
2022-08-17T19:00:29.902Z,51.67
2022-08-17T19:03:18.019Z,52.16
2022-08-17T19:05:55.568Z,52.63
2022-08-17T19:08:29.139Z,52.63
2022-08-17T19:11:17.148Z,52.68
2022-08-17T19:13:51.789Z,52.75
2022-08-17T19:16:34.111Z,52.93
2022-08-17T19:19:14.452Z,53.40
2022-08-17T19:21:47.022Z,53.75
2022-08-17T19:24:21.980Z,53.75
2022-08-17T19:26:59.832Z,54.37
2022-08-17T19:29:34.264Z,54.16
2022-08-17T19:32:02.031Z,54.63
2022-08-17T19:34:34.793Z,55.27
2022-08-17T19:37:29.953Z,55.51
2022-08-17T19:40:08.798Z,55.52
2022-08-17T19:43:06.424Z,55.46
2022-08-17T19:45:39.806Z,55.78
2022-08-17T19:48:07.200Z,55.61
2022-08-17T19:51:04.097Z,55.95
2022-08-17T19:54:06.877Z,56.42
2022-08-17T19:56:40.849Z,57.30
2022-08-17T19:59:16.878Z,57.17
2022-08-17T20:02:30.290Z,57.66
2022-08-17T20:05:03.162Z,57.08
2022-08-17T20:07:43.801Z,57.26
2022-08-17T20:10:28.827Z,57.91
2022-08-17T20:13:03.115Z,58.10
2022-08-17T20:15:37.172Z,58.45
2022-08-17T20:18:15.393Z,58.33
2022-08-17T20:20:51.722Z,58.18
2022-08-17T20:23:29.198Z,58.03
2022-08-17T20:26:19.051Z,58.18
2022-08-17T20:29:14.421Z,58.81
2022-08-17T20:31:50.563Z,59.32
2022-08-17T20:34:33.590Z,59.12
2022-08-17T20:37:14.682Z,59.07
2022-08-17T20:39:44.857Z,58.38
2022-08-17T20:42:21.214Z,58.87
2022-08-17T20:44:55.675Z,59.28
2022-08-17T20:48:27.241Z,59.71
2022-08-17T20:50:56.112Z,60.25
2022-08-17T20:54:07.056Z,60.60
2022-08-17T20:56:43.672Z,60.51
2022-08-17T20:59:26.833Z,60.71
2022-08-17T21:02:17.663Z,61.66
2022-08-17T21:04:56.412Z,61.98
2022-08-17T21:07:48.435Z,62.05
2022-08-17T21:10:29.410Z,62.51
2022-08-17T21:13:16.205Z,62.67
2022-08-17T21:15:58.991Z,61.72
2022-08-17T21:18:47.731Z,62.31
2022-08-17T21:21:24.292Z,62.23
2022-08-17T21:24:16.699Z,62.84
2022-08-17T21:27:00.371Z,63.35
2022-08-17T21:29:33.811Z,63.84
2022-08-17T21:32:05.504Z,63.85
2022-08-17T21:34:38.004Z,64.30
2022-08-17T21:37:21.906Z,64.30
2022-08-17T21:39:58.131Z,64.51
2022-08-17T21:42:29.882Z,64.15
2022-08-17T21:45:08.622Z,64.45
2022-08-17T21:47:43.508Z,64.55
2022-08-17T21:50:21.610Z,64.40
2022-08-17T21:52:54.211Z,64.20
2022-08-17T21:55:28.346Z,64.28
2022-08-17T21:58:14.326Z,64.78
2022-08-17T22:00:44.770Z,64.85
2022-08-17T22:03:24.313Z,65.30
2022-08-17T22:05:51.734Z,65.46
2022-08-17T22:08:21.927Z,66.12
2022-08-17T22:10:51.441Z,66.15
2022-08-17T22:13:18.573Z,66.74
2022-08-17T22:16:15.730Z,66.99
2022-08-17T22:18:58.215Z,66.99
2022-08-17T22:21:26.202Z,67.19
2022-08-17T22:24:06.079Z,67.17
2022-08-17T22:27:13.022Z,67.26
2022-08-17T22:29:57.413Z,67.19
2022-08-17T22:32:37.474Z,67.57
2022-08-17T22:35:26.585Z,67.53
2022-08-17T22:37:53.951Z,67.77
2022-08-17T22:40:39.386Z,68.05
2022-08-17T22:43:11.790Z,68.48
2022-08-17T22:45:51.643Z,68.83
2022-08-17T22:48:27.379Z,69.77
2022-08-17T22:51:12.882Z,69.99
2022-08-17T22:54:09.255Z,69.95
2022-08-17T22:56:55.901Z,69.55
2022-08-17T22:59:40.571Z,69.79
2022-08-17T23:02:17.285Z,70.25
2022-08-17T23:04:49.119Z,69.76
2022-08-17T23:07:17.558Z,70.23
2022-08-17T23:09:45.443Z,70.43
2022-08-17T23:12:17.880Z,70.95
2022-08-17T23:14:51.562Z,70.91
2022-08-17T23:17:19.047Z,71.23
2022-08-17T23:19:46.415Z,71.89
2022-08-17T23:22:13.637Z,71.95
2022-08-17T23:24:49.118Z,71.98
2022-08-17T23:27:19.336Z,72.29
2022-08-17T23:29:48.725Z,72.50
2022-08-17T23:32:18.542Z,72.76
2022-08-17T23:34:47.808Z,72.67
2022-08-17T23:37:16.299Z,72.82
2022-08-17T23:39:46.651Z,73.73
2022-08-17T23:42:22.035Z,73.71
2022-08-17T23:44:49.422Z,73.89
2022-08-17T23:47:16.535Z,74.07
2022-08-17T23:49:43.757Z,73.80
2022-08-17T23:52:15.222Z,74.28
2022-08-17T23:54:46.795Z,74.22
2022-08-17T23:57:17.736Z,73.69
2022-08-17T23:59:45.093Z,74.10
